EKAH/AAR METAR and TAF weather

Enter ICAO airport designator
Station Type Date Time Source
EKAH METAR 2019/02/23 02:20 UTC NOAA

EKAH 230220Z AUTO 21005KT 150V280 9999NDV BKN039/// 02/M00 Q1043


Station Type Date Time Source
EKAH Decoded METAR 2019/02/23 02:20 UTC NOAA

Tirstrup, Denmark (EKAH) 56-18N 010-37E 25M
Feb 22, 2019 - 09:20 PM EST / 2019.02.23 0220 UTC
Wind: from the SSW (210 degrees) at 6 MPH (5 KT) (direction variable):0
Sky conditions: mostly cloudy
Temperature: 35 F (2 C)
Windchill: 30 F (-1 C):1
Dew Point: 32 F (0 C)
Relative Humidity: 86%
Pressure (altimeter): 30.80 in. Hg (1043 hPa)
ob: EKAH 230220Z AUTO 21005KT 150V280 9999NDV BKN039/// 02/M00 Q1043
cycle: 2

Station Type Date Time Source
EKAH TAF 2019/02/22 18:18 UTC NOAA

TAF TAF EKAH 221711Z 2218/2318 15008KT 9999 FEW020
BECMG 2306/2309 21008KT


Example: see airport list